sensor_id;sensor_type;location;lat;lon;timestamp;P1;durP1;ratioP1;P2;durP2;ratioP2
31652;SDS011;18261;53.648;9.910;2023-07-30T00:01:18;9.25;;;5.22;;
31652;SDS011;18261;53.648;9.910;2023-07-30T00:03:44;9.48;;;4.65;;
31652;SDS011;18261;53.648;9.910;2023-07-30T00:06:10;8.88;;;5.18;;
31652;SDS011;18261;53.648;9.910;2023-07-30T00:08:36;10.90;;;5.82;;
31652;SDS011;18261;53.648;9.910;2023-07-30T00:11:02;11.05;;;5.15;;
31652;SDS011;18261;53.648;9.910;2023-07-30T00:13:28;10.70;;;5.57;;
31652;SDS011;18261;53.648;9.910;2023-07-30T00:15:54;10.40;;;5.50;;
31652;SDS011;18261;53.648;9.910;2023-07-30T00:18:20;17.10;;;6.32;;
31652;SDS011;18261;53.648;9.910;2023-07-30T00:20:46;8.82;;;4.93;;
31652;SDS011;18261;53.648;9.910;2023-07-30T00:23:12;12.00;;;5.38;;
31652;SDS011;18261;53.648;9.910;2023-07-30T00:25:38;9.50;;;5.15;;
31652;SDS011;18261;53.648;9.910;2023-07-30T00:28:04;10.27;;;5.20;;
31652;SDS011;18261;53.648;9.910;2023-07-30T00:30:30;12.68;;;5.30;;
31652;SDS011;18261;53.648;9.910;2023-07-30T00:32:56;8.65;;;4.55;;
31652;SDS011;18261;53.648;9.910;2023-07-30T00:35:22;7.40;;;4.03;;
31652;SDS011;18261;53.648;9.910;2023-07-30T00:37:48;9.07;;;4.55;;
31652;SDS011;18261;53.648;9.910;2023-07-30T00:40:14;7.28;;;4.55;;
31652;SDS011;18261;53.648;9.910;2023-07-30T00:42:40;7.82;;;4.65;;
31652;SDS011;18261;53.648;9.910;2023-07-30T00:45:06;6.53;;;3.95;;
31652;SDS011;18261;53.648;9.910;2023-07-30T00:47:32;7.93;;;4.32;;
31652;SDS011;18261;53.648;9.910;2023-07-30T00:49:58;8.48;;;4.15;;
31652;SDS011;18261;53.648;9.910;2023-07-30T00:52:24;6.40;;;4.03;;
31652;SDS011;18261;53.648;9.910;2023-07-30T00:54:51;5.95;;;4.18;;
31652;SDS011;18261;53.648;9.910;2023-07-30T00:57:17;7.90;;;4.10;;
31652;SDS011;18261;53.648;9.910;2023-07-30T00:59:44;6.95;;;4.15;;
31652;SDS011;18261;53.648;9.910;2023-07-30T01:02:10;9.35;;;5.70;;
31652;SDS011;18261;53.648;9.910;2023-07-30T01:04:36;8.50;;;4.53;;
31652;SDS011;18261;53.648;9.910;2023-07-30T01:07:04;12.38;;;4.07;;
31652;SDS011;18261;53.648;9.910;2023-07-30T01:09:30;5.28;;;3.80;;
31652;SDS011;18261;53.648;9.910;2023-07-30T01:11:56;7.28;;;3.70;;
31652;SDS011;18261;53.648;9.910;2023-07-30T01:14:23;8.00;;;3.90;;
31652;SDS011;18261;53.648;9.910;2023-07-30T01:16:51;6.97;;;3.97;;
31652;SDS011;18261;53.648;9.910;2023-07-30T01:19:17;9.55;;;3.85;;
31652;SDS011;18261;53.648;9.910;2023-07-30T01:21:43;7.30;;;3.90;;
31652;SDS011;18261;53.648;9.910;2023-07-30T01:24:09;5.40;;;3.60;;
31652;SDS011;18261;53.648;9.910;2023-07-30T01:26:45;10.73;;;3.38;;
31652;SDS011;18261;53.648;9.910;2023-07-30T01:29:16;6.50;;;3.60;;
31652;SDS011;18261;53.648;9.910;2023-07-30T01:31:47;11.20;;;3.90;;
31652;SDS011;18261;53.648;9.910;2023-07-30T01:34:16;4.45;;;3.00;;
31652;SDS011;18261;53.648;9.910;2023-07-30T01:36:43;3.50;;;2.83;;
31652;SDS011;18261;53.648;9.910;2023-07-30T01:39:09;12.10;;;4.18;;
31652;SDS011;18261;53.648;9.910;2023-07-30T01:41:35;7.93;;;4.07;;
31652;SDS011;18261;53.648;9.910;2023-07-30T01:44:01;8.88;;;4.50;;
31652;SDS011;18261;53.648;9.910;2023-07-30T01:46:27;4.88;;;3.80;;
31652;SDS011;18261;53.648;9.910;2023-07-30T01:48:53;6.90;;;3.75;;
31652;SDS011;18261;53.648;9.910;2023-07-30T01:51:19;11.13;;;5.70;;
31652;SDS011;18261;53.648;9.910;2023-07-30T01:53:45;13.13;;;9.45;;
31652;SDS011;18261;53.648;9.910;2023-07-30T01:56:11;8.10;;;5.30;;
31652;SDS011;18261;53.648;9.910;2023-07-30T01:58:37;8.50;;;4.93;;
31652;SDS011;18261;53.648;9.910;2023-07-30T02:01:03;7.70;;;4.20;;
31652;SDS011;18261;53.648;9.910;2023-07-30T02:03:29;9.10;;;4.38;;
31652;SDS011;18261;53.648;9.910;2023-07-30T02:05:55;7.40;;;4.57;;
31652;SDS011;18261;53.648;9.910;2023-07-30T02:08:21;6.05;;;5.10;;
31652;SDS011;18261;53.648;9.910;2023-07-30T02:10:54;11.90;;;4.50;;
31652;SDS011;18261;53.648;9.910;2023-07-30T02:13:20;9.98;;;4.60;;
31652;SDS011;18261;53.648;9.910;2023-07-30T02:15:46;13.27;;;5.60;;
31652;SDS011;18261;53.648;9.910;2023-07-30T02:18:12;7.85;;;5.57;;
31652;SDS011;18261;53.648;9.910;2023-07-30T02:20:38;6.93;;;4.97;;
31652;SDS011;18261;53.648;9.910;2023-07-30T02:23:04;11.55;;;6.53;;
31652;SDS011;18261;53.648;9.910;2023-07-30T02:25:30;8.57;;;5.75;;
31652;SDS011;18261;53.648;9.910;2023-07-30T02:27:57;8.82;;;6.03;;
31652;SDS011;18261;53.648;9.910;2023-07-30T02:30:23;8.68;;;5.38;;
31652;SDS011;18261;53.648;9.910;2023-07-30T02:32:49;10.30;;;6.35;;
31652;SDS011;18261;53.648;9.910;2023-07-30T02:35:15;15.98;;;7.43;;
31652;SDS011;18261;53.648;9.910;2023-07-30T02:37:41;11.30;;;6.53;;
31652;SDS011;18261;53.648;9.910;2023-07-30T02:40:07;10.48;;;6.75;;
31652;SDS011;18261;53.648;9.910;2023-07-30T02:42:33;13.10;;;8.52;;
31652;SDS011;18261;53.648;9.910;2023-07-30T02:44:59;13.30;;;8.68;;
31652;SDS011;18261;53.648;9.910;2023-07-30T02:47:25;11.68;;;8.40;;
31652;SDS011;18261;53.648;9.910;2023-07-30T02:49:51;12.13;;;8.18;;
31652;SDS011;18261;53.648;9.910;2023-07-30T02:52:17;18.15;;;10.60;;
31652;SDS011;18261;53.648;9.910;2023-07-30T02:54:43;18.08;;;9.98;;
31652;SDS011;18261;53.648;9.910;2023-07-30T02:57:09;19.63;;;10.85;;
31652;SDS011;18261;53.648;9.910;2023-07-30T02:59:36;17.77;;;10.70;;
31652;SDS011;18261;53.648;9.910;2023-07-30T03:02:03;16.65;;;10.50;;
31652;SDS011;18261;53.648;9.910;2023-07-30T03:04:32;16.17;;;10.82;;
31652;SDS011;18261;53.648;9.910;2023-07-30T03:06:58;17.58;;;10.80;;
31652;SDS011;18261;53.648;9.910;2023-07-30T03:09:24;17.23;;;10.82;;
31652;SDS011;18261;53.648;9.910;2023-07-30T03:11:50;15.20;;;9.93;;
31652;SDS011;18261;53.648;9.910;2023-07-30T03:14:16;17.75;;;10.90;;
31652;SDS011;18261;53.648;9.910;2023-07-30T03:16:45;23.38;;;11.40;;
31652;SDS011;18261;53.648;9.910;2023-07-30T03:19:11;16.15;;;11.43;;
31652;SDS011;18261;53.648;9.910;2023-07-30T03:21:37;21.48;;;11.77;;
31652;SDS011;18261;53.648;9.910;2023-07-30T03:24:03;19.25;;;11.10;;
31652;SDS011;18261;53.648;9.910;2023-07-30T03:26:29;18.92;;;11.68;;
31652;SDS011;18261;53.648;9.910;2023-07-30T03:28:55;14.48;;;10.65;;
31652;SDS011;18261;53.648;9.910;2023-07-30T03:31:21;17.52;;;12.20;;
31652;SDS011;18261;53.648;9.910;2023-07-30T03:33:47;17.50;;;11.43;;
31652;SDS011;18261;53.648;9.910;2023-07-30T03:36:14;16.23;;;11.63;;
31652;SDS011;18261;53.648;9.910;2023-07-30T03:38:40;17.45;;;11.48;;
31652;SDS011;18261;53.648;9.910;2023-07-30T03:41:06;16.50;;;11.65;;
31652;SDS011;18261;53.648;9.910;2023-07-30T03:43:33;18.52;;;11.60;;
31652;SDS011;18261;53.648;9.910;2023-07-30T03:45:59;19.70;;;12.85;;
31652;SDS011;18261;53.648;9.910;2023-07-30T03:48:25;20.73;;;12.27;;
31652;SDS011;18261;53.648;9.910;2023-07-30T03:50:52;17.00;;;11.02;;
31652;SDS011;18261;53.648;9.910;2023-07-30T03:53:18;18.67;;;11.43;;
31652;SDS011;18261;53.648;9.910;2023-07-30T03:55:44;15.25;;;11.00;;
31652;SDS011;18261;53.648;9.910;2023-07-30T03:58:09;21.15;;;11.20;;
31652;SDS011;18261;53.648;9.910;2023-07-30T04:00:35;16.80;;;11.15;;
31652;SDS011;18261;53.648;9.910;2023-07-30T04:03:01;18.00;;;10.75;;
31652;SDS011;18261;53.648;9.910;2023-07-30T04:05:27;18.75;;;10.68;;
31652;SDS011;18261;53.648;9.910;2023-07-30T04:07:53;17.35;;;10.80;;
31652;SDS011;18261;53.648;9.910;2023-07-30T04:10:19;21.92;;;10.82;;
31652;SDS011;18261;53.648;9.910;2023-07-30T04:12:45;18.05;;;10.52;;
31652;SDS011;18261;53.648;9.910;2023-07-30T04:15:11;18.27;;;11.38;;
31652;SDS011;18261;53.648;9.910;2023-07-30T04:17:37;20.27;;;11.50;;
31652;SDS011;18261;53.648;9.910;2023-07-30T04:20:04;14.93;;;10.10;;
31652;SDS011;18261;53.648;9.910;2023-07-30T04:22:30;16.55;;;10.65;;
31652;SDS011;18261;53.648;9.910;2023-07-30T04:24:56;18.60;;;10.95;;
31652;SDS011;18261;53.648;9.910;2023-07-30T04:27:22;25.23;;;12.80;;
31652;SDS011;18261;53.648;9.910;2023-07-30T04:29:48;20.25;;;11.32;;
31652;SDS011;18261;53.648;9.910;2023-07-30T04:32:14;17.27;;;11.57;;
31652;SDS011;18261;53.648;9.910;2023-07-30T04:34:40;20.85;;;12.52;;
31652;SDS011;18261;53.648;9.910;2023-07-30T04:37:06;19.98;;;10.95;;
31652;SDS011;18261;53.648;9.910;2023-07-30T04:39:32;19.75;;;10.40;;
31652;SDS011;18261;53.648;9.910;2023-07-30T04:41:58;21.20;;;11.00;;
31652;SDS011;18261;53.648;9.910;2023-07-30T04:44:24;22.50;;;11.70;;
31652;SDS011;18261;53.648;9.910;2023-07-30T04:46:50;27.58;;;13.00;;
31652;SDS011;18261;53.648;9.910;2023-07-30T04:49:16;24.65;;;10.77;;
31652;SDS011;18261;53.648;9.910;2023-07-30T04:51:42;27.13;;;11.20;;
31652;SDS011;18261;53.648;9.910;2023-07-30T04:54:08;21.67;;;11.05;;
31652;SDS011;18261;53.648;9.910;2023-07-30T04:56:34;22.45;;;10.63;;
31652;SDS011;18261;53.648;9.910;2023-07-30T04:59:00;22.40;;;11.07;;
31652;SDS011;18261;53.648;9.910;2023-07-30T05:01:27;20.92;;;10.00;;
31652;SDS011;18261;53.648;9.910;2023-07-30T05:03:53;26.08;;;11.32;;
31652;SDS011;18261;53.648;9.910;2023-07-30T05:06:19;20.75;;;9.90;;
31652;SDS011;18261;53.648;9.910;2023-07-30T05:08:45;21.05;;;10.07;;
31652;SDS011;18261;53.648;9.910;2023-07-30T05:11:11;18.42;;;9.85;;
31652;SDS011;18261;53.648;9.910;2023-07-30T05:13:37;22.65;;;10.30;;
31652;SDS011;18261;53.648;9.910;2023-07-30T05:16:03;24.48;;;11.70;;
31652;SDS011;18261;53.648;9.910;2023-07-30T05:18:29;24.25;;;13.43;;
31652;SDS011;18261;53.648;9.910;2023-07-30T05:20:55;20.02;;;10.23;;
31652;SDS011;18261;53.648;9.910;2023-07-30T05:23:21;21.85;;;10.07;;
31652;SDS011;18261;53.648;9.910;2023-07-30T05:25:47;19.27;;;9.65;;
31652;SDS011;18261;53.648;9.910;2023-07-30T05:28:13;22.40;;;8.70;;
31652;SDS011;18261;53.648;9.910;2023-07-30T05:30:39;22.05;;;8.88;;
31652;SDS011;18261;53.648;9.910;2023-07-30T05:33:05;17.17;;;8.40;;
31652;SDS011;18261;53.648;9.910;2023-07-30T05:35:31;23.60;;;8.65;;
31652;SDS011;18261;53.648;9.910;2023-07-30T05:37:57;18.27;;;7.57;;
31652;SDS011;18261;53.648;9.910;2023-07-30T05:40:23;17.08;;;7.72;;
31652;SDS011;18261;53.648;9.910;2023-07-30T05:42:49;25.27;;;9.20;;
31652;SDS011;18261;53.648;9.910;2023-07-30T05:45:15;19.88;;;7.60;;
31652;SDS011;18261;53.648;9.910;2023-07-30T05:47:41;21.95;;;7.75;;
31652;SDS011;18261;53.648;9.910;2023-07-30T05:50:07;28.02;;;8.70;;
31652;SDS011;18261;53.648;9.910;2023-07-30T05:52:33;21.30;;;8.38;;
31652;SDS011;18261;53.648;9.910;2023-07-30T05:54:59;21.42;;;7.90;;
31652;SDS011;18261;53.648;9.910;2023-07-30T05:57:25;24.48;;;8.63;;
31652;SDS011;18261;53.648;9.910;2023-07-30T05:59:51;24.55;;;9.07;;
31652;SDS011;18261;53.648;9.910;2023-07-30T06:02:17;26.70;;;8.95;;
31652;SDS011;18261;53.648;9.910;2023-07-30T06:04:43;22.92;;;8.75;;
31652;SDS011;18261;53.648;9.910;2023-07-30T06:07:10;21.55;;;8.00;;
31652;SDS011;18261;53.648;9.910;2023-07-30T06:09:36;29.48;;;9.82;;
31652;SDS011;18261;53.648;9.910;2023-07-30T06:12:02;30.17;;;10.40;;
31652;SDS011;18261;53.648;9.910;2023-07-30T06:14:28;25.17;;;9.18;;
31652;SDS011;18261;53.648;9.910;2023-07-30T06:16:54;24.48;;;8.45;;
31652;SDS011;18261;53.648;9.910;2023-07-30T06:19:20;32.28;;;9.93;;
31652;SDS011;18261;53.648;9.910;2023-07-30T06:21:46;28.25;;;8.73;;
31652;SDS011;18261;53.648;9.910;2023-07-30T06:24:12;29.00;;;9.20;;
31652;SDS011;18261;53.648;9.910;2023-07-30T06:26:38;24.83;;;8.55;;
31652;SDS011;18261;53.648;9.910;2023-07-30T06:29:04;29.80;;;9.45;;
31652;SDS011;18261;53.648;9.910;2023-07-30T06:31:30;31.25;;;9.25;;
31652;SDS011;18261;53.648;9.910;2023-07-30T06:33:56;29.05;;;9.80;;
31652;SDS011;18261;53.648;9.910;2023-07-30T06:36:22;29.58;;;9.68;;
31652;SDS011;18261;53.648;9.910;2023-07-30T06:38:48;37.10;;;10.10;;
31652;SDS011;18261;53.648;9.910;2023-07-30T06:41:14;35.50;;;11.18;;
31652;SDS011;18261;53.648;9.910;2023-07-30T06:43:40;29.80;;;10.70;;
31652;SDS011;18261;53.648;9.910;2023-07-30T06:46:06;36.50;;;11.82;;
31652;SDS011;18261;53.648;9.910;2023-07-30T06:48:32;29.13;;;12.10;;
31652;SDS011;18261;53.648;9.910;2023-07-30T06:50:58;33.60;;;12.68;;
31652;SDS011;18261;53.648;9.910;2023-07-30T06:53:24;41.03;;;12.35;;
31652;SDS011;18261;53.648;9.910;2023-07-30T06:55:50;45.42;;;13.57;;
31652;SDS011;18261;53.648;9.910;2023-07-30T06:58:16;36.10;;;11.35;;
31652;SDS011;18261;53.648;9.910;2023-07-30T07:00:42;41.78;;;12.70;;
31652;SDS011;18261;53.648;9.910;2023-07-30T07:03:08;46.97;;;12.95;;
31652;SDS011;18261;53.648;9.910;2023-07-30T07:05:34;41.40;;;12.95;;
31652;SDS011;18261;53.648;9.910;2023-07-30T07:08:00;47.90;;;12.70;;
31652;SDS011;18261;53.648;9.910;2023-07-30T07:10:26;49.50;;;13.38;;
31652;SDS011;18261;53.648;9.910;2023-07-30T07:12:52;43.97;;;13.45;;
31652;SDS011;18261;53.648;9.910;2023-07-30T07:15:18;43.47;;;12.80;;
31652;SDS011;18261;53.648;9.910;2023-07-30T07:17:44;37.72;;;11.68;;
31652;SDS011;18261;53.648;9.910;2023-07-30T07:20:10;50.83;;;13.60;;
31652;SDS011;18261;53.648;9.910;2023-07-30T07:22:36;39.33;;;13.30;;
31652;SDS011;18261;53.648;9.910;2023-07-30T07:25:02;40.33;;;12.10;;
31652;SDS011;18261;53.648;9.910;2023-07-30T07:27:28;39.67;;;11.68;;
31652;SDS011;18261;53.648;9.910;2023-07-30T07:29:54;45.85;;;12.38;;
31652;SDS011;18261;53.648;9.910;2023-07-30T07:32:21;55.03;;;11.77;;
31652;SDS011;18261;53.648;9.910;2023-07-30T07:34:47;38.50;;;10.88;;
31652;SDS011;18261;53.648;9.910;2023-07-30T07:37:14;37.35;;;10.18;;
31652;SDS011;18261;53.648;9.910;2023-07-30T07:39:40;39.00;;;11.40;;
31652;SDS011;18261;53.648;9.910;2023-07-30T07:42:06;40.10;;;11.30;;
31652;SDS011;18261;53.648;9.910;2023-07-30T07:44:32;47.30;;;11.10;;
31652;SDS011;18261;53.648;9.910;2023-07-30T07:46:58;46.17;;;11.25;;
31652;SDS011;18261;53.648;9.910;2023-07-30T07:49:24;38.97;;;11.05;;
31652;SDS011;18261;53.648;9.910;2023-07-30T07:51:50;45.33;;;10.25;;
31652;SDS011;18261;53.648;9.910;2023-07-30T07:54:16;40.97;;;11.35;;
31652;SDS011;18261;53.648;9.910;2023-07-30T07:56:42;38.85;;;10.02;;
31652;SDS011;18261;53.648;9.910;2023-07-30T07:59:08;37.08;;;10.38;;
31652;SDS011;18261;53.648;9.910;2023-07-30T08:01:34;34.13;;;9.80;;
31652;SDS011;18261;53.648;9.910;2023-07-30T08:04:00;39.67;;;9.05;;
31652;SDS011;18261;53.648;9.910;2023-07-30T08:06:26;30.13;;;9.20;;
31652;SDS011;18261;53.648;9.910;2023-07-30T08:08:52;38.60;;;10.38;;
31652;SDS011;18261;53.648;9.910;2023-07-30T08:11:18;33.13;;;9.82;;
31652;SDS011;18261;53.648;9.910;2023-07-30T08:13:44;37.75;;;9.30;;
31652;SDS011;18261;53.648;9.910;2023-07-30T08:16:11;33.40;;;8.63;;
31652;SDS011;18261;53.648;9.910;2023-07-30T08:18:37;35.92;;;7.75;;
31652;SDS011;18261;53.648;9.910;2023-07-30T08:21:03;27.85;;;8.00;;
31652;SDS011;18261;53.648;9.910;2023-07-30T08:23:29;37.83;;;9.30;;
31652;SDS011;18261;53.648;9.910;2023-07-30T08:25:55;37.45;;;9.07;;
31652;SDS011;18261;53.648;9.910;2023-07-30T08:28:21;31.30;;;7.75;;
31652;SDS011;18261;53.648;9.910;2023-07-30T08:30:47;33.42;;;8.82;;
31652;SDS011;18261;53.648;9.910;2023-07-30T08:33:13;29.85;;;7.95;;
31652;SDS011;18261;53.648;9.910;2023-07-30T08:35:39;28.25;;;8.40;;
31652;SDS011;18261;53.648;9.910;2023-07-30T08:38:05;35.55;;;8.57;;
31652;SDS011;18261;53.648;9.910;2023-07-30T08:40:31;44.38;;;9.60;;
31652;SDS011;18261;53.648;9.910;2023-07-30T08:42:57;26.70;;;7.57;;
31652;SDS011;18261;53.648;9.910;2023-07-30T08:45:23;26.83;;;7.38;;
31652;SDS011;18261;53.648;9.910;2023-07-30T08:47:49;32.80;;;8.10;;
31652;SDS011;18261;53.648;9.910;2023-07-30T08:50:15;30.52;;;7.38;;
31652;SDS011;18261;53.648;9.910;2023-07-30T08:52:41;32.65;;;7.00;;
31652;SDS011;18261;53.648;9.910;2023-07-30T08:55:08;38.10;;;7.78;;
31652;SDS011;18261;53.648;9.910;2023-07-30T08:57:35;28.42;;;6.15;;
31652;SDS011;18261;53.648;9.910;2023-07-30T09:00:05;32.17;;;6.47;;
31652;SDS011;18261;53.648;9.910;2023-07-30T09:02:39;38.88;;;6.65;;
31652;SDS011;18261;53.648;9.910;2023-07-30T09:05:07;22.60;;;6.05;;
31652;SDS011;18261;53.648;9.910;2023-07-30T09:07:33;31.05;;;7.07;;
31652;SDS011;18261;53.648;9.910;2023-07-30T09:09:59;27.67;;;5.35;;
31652;SDS011;18261;53.648;9.910;2023-07-30T09:12:32;20.77;;;5.75;;
31652;SDS011;18261;53.648;9.910;2023-07-30T09:14:58;25.42;;;5.88;;
31652;SDS011;18261;53.648;9.910;2023-07-30T09:17:24;27.80;;;5.13;;
31652;SDS011;18261;53.648;9.910;2023-07-30T09:19:51;26.73;;;5.80;;
31652;SDS011;18261;53.648;9.910;2023-07-30T09:22:35;37.95;;;6.65;;
31652;SDS011;18261;53.648;9.910;2023-07-30T09:25:05;25.42;;;5.35;;
31652;SDS011;18261;53.648;9.910;2023-07-30T09:27:31;23.17;;;4.78;;
31652;SDS011;18261;53.648;9.910;2023-07-30T09:29:58;30.95;;;5.45;;
31652;SDS011;18261;53.648;9.910;2023-07-30T09:32:28;30.08;;;5.35;;
31652;SDS011;18261;53.648;9.910;2023-07-30T09:34:55;30.58;;;5.65;;
31652;SDS011;18261;53.648;9.910;2023-07-30T09:37:21;29.42;;;5.35;;
31652;SDS011;18261;53.648;9.910;2023-07-30T09:39:47;32.50;;;5.97;;
31652;SDS011;18261;53.648;9.910;2023-07-30T09:42:13;21.77;;;5.47;;
31652;SDS011;18261;53.648;9.910;2023-07-30T09:44:39;31.25;;;6.13;;
31652;SDS011;18261;53.648;9.910;2023-07-30T09:47:09;34.05;;;6.35;;
31652;SDS011;18261;53.648;9.910;2023-07-30T09:49:38;39.97;;;7.18;;
31652;SDS011;18261;53.648;9.910;2023-07-30T09:52:05;25.33;;;5.55;;
31652;SDS011;18261;53.648;9.910;2023-07-30T09:54:31;27.35;;;5.57;;
31652;SDS011;18261;53.648;9.910;2023-07-30T09:56:58;35.25;;;7.13;;
31652;SDS011;18261;53.648;9.910;2023-07-30T09:59:24;24.48;;;5.38;;
31652;SDS011;18261;53.648;9.910;2023-07-30T10:01:50;32.38;;;5.97;;
31652;SDS011;18261;53.648;9.910;2023-07-30T10:04:21;33.30;;;5.95;;
31652;SDS011;18261;53.648;9.910;2023-07-30T10:06:55;33.22;;;7.00;;
31652;SDS011;18261;53.648;9.910;2023-07-30T10:11:48;23.73;;;6.22;;
31652;SDS011;18261;53.648;9.910;2023-07-30T10:14:15;28.75;;;6.30;;
31652;SDS011;18261;53.648;9.910;2023-07-30T10:16:49;35.38;;;6.55;;
31652;SDS011;18261;53.648;9.910;2023-07-30T10:19:16;30.38;;;7.13;;
31652;SDS011;18261;53.648;9.910;2023-07-30T10:21:43;35.40;;;9.50;;
31652;SDS011;18261;53.648;9.910;2023-07-30T10:24:09;21.60;;;5.80;;
31652;SDS011;18261;53.648;9.910;2023-07-30T10:26:35;22.65;;;5.53;;
31652;SDS011;18261;53.648;9.910;2023-07-30T10:31:40;37.17;;;6.57;;
31652;SDS011;18261;53.648;9.910;2023-07-30T10:34:07;26.40;;;5.20;;
31652;SDS011;18261;53.648;9.910;2023-07-30T10:36:44;22.83;;;4.93;;
31652;SDS011;18261;53.648;9.910;2023-07-30T10:39:21;23.38;;;6.03;;
31652;SDS011;18261;53.648;9.910;2023-07-30T10:41:50;26.30;;;5.20;;
31652;SDS011;18261;53.648;9.910;2023-07-30T10:44:27;21.52;;;5.18;;
31652;SDS011;18261;53.648;9.910;2023-07-30T10:46:54;22.52;;;5.10;;
31652;SDS011;18261;53.648;9.910;2023-07-30T10:49:20;38.65;;;5.53;;
31652;SDS011;18261;53.648;9.910;2023-07-30T10:51:46;19.20;;;5.10;;
31652;SDS011;18261;53.648;9.910;2023-07-30T10:54:12;29.65;;;6.07;;
31652;SDS011;18261;53.648;9.910;2023-07-30T10:56:38;25.77;;;5.40;;
31652;SDS011;18261;53.648;9.910;2023-07-30T10:59:05;21.77;;;4.28;;
31652;SDS011;18261;53.648;9.910;2023-07-30T11:01:35;15.75;;;3.60;;
31652;SDS011;18261;53.648;9.910;2023-07-30T11:04:01;23.20;;;4.00;;
31652;SDS011;18261;53.648;9.910;2023-07-30T11:06:31;17.05;;;3.47;;
31652;SDS011;18261;53.648;9.910;2023-07-30T11:08:57;17.92;;;3.83;;
31652;SDS011;18261;53.648;9.910;2023-07-30T11:11:22;22.05;;;3.47;;
31652;SDS011;18261;53.648;9.910;2023-07-30T11:13:50;20.27;;;3.90;;
31652;SDS011;18261;53.648;9.910;2023-07-30T11:16:16;18.63;;;3.20;;
31652;SDS011;18261;53.648;9.910;2023-07-30T11:18:43;17.23;;;2.97;;
31652;SDS011;18261;53.648;9.910;2023-07-30T11:21:10;15.68;;;2.88;;
31652;SDS011;18261;53.648;9.910;2023-07-30T11:23:37;27.05;;;3.20;;
31652;SDS011;18261;53.648;9.910;2023-07-30T11:26:04;15.90;;;3.03;;
31652;SDS011;18261;53.648;9.910;2023-07-30T11:28:31;10.48;;;2.40;;
31652;SDS011;18261;53.648;9.910;2023-07-30T11:31:07;17.02;;;3.08;;
31652;SDS011;18261;53.648;9.910;2023-07-30T11:33:33;14.63;;;2.90;;
31652;SDS011;18261;53.648;9.910;2023-07-30T11:36:00;16.83;;;3.70;;
31652;SDS011;18261;53.648;9.910;2023-07-30T11:38:27;14.52;;;3.50;;
31652;SDS011;18261;53.648;9.910;2023-07-30T11:40:54;19.30;;;2.60;;
31652;SDS011;18261;53.648;9.910;2023-07-30T11:43:21;14.20;;;3.13;;
31652;SDS011;18261;53.648;9.910;2023-07-30T11:45:47;17.05;;;3.33;;
31652;SDS011;18261;53.648;9.910;2023-07-30T11:48:13;11.15;;;2.88;;
31652;SDS011;18261;53.648;9.910;2023-07-30T11:50:49;14.30;;;3.17;;
31652;SDS011;18261;53.648;9.910;2023-07-30T11:53:16;15.68;;;2.95;;
31652;SDS011;18261;53.648;9.910;2023-07-30T11:55:43;16.98;;;3.03;;
31652;SDS011;18261;53.648;9.910;2023-07-30T11:58:09;17.92;;;3.10;;
31652;SDS011;18261;53.648;9.910;2023-07-30T12:00:36;13.20;;;2.95;;
31652;SDS011;18261;53.648;9.910;2023-07-30T12:03:03;12.50;;;2.45;;
31652;SDS011;18261;53.648;9.910;2023-07-30T12:05:33;11.15;;;2.78;;
31652;SDS011;18261;53.648;9.910;2023-07-30T12:07:59;10.15;;;2.78;;
31652;SDS011;18261;53.648;9.910;2023-07-30T12:10:27;15.77;;;3.20;;
31652;SDS011;18261;53.648;9.910;2023-07-30T12:12:53;16.05;;;2.90;;
31652;SDS011;18261;53.648;9.910;2023-07-30T12:15:20;15.55;;;2.97;;
31652;SDS011;18261;53.648;9.910;2023-07-30T12:17:47;13.38;;;2.75;;
31652;SDS011;18261;53.648;9.910;2023-07-30T12:20:13;14.98;;;3.65;;
31652;SDS011;18261;53.648;9.910;2023-07-30T12:22:39;14.20;;;2.85;;
31652;SDS011;18261;53.648;9.910;2023-07-30T12:25:07;16.48;;;3.70;;
31652;SDS011;18261;53.648;9.910;2023-07-30T12:27:35;18.30;;;3.25;;
31652;SDS011;18261;53.648;9.910;2023-07-30T12:30:01;15.20;;;2.85;;
31652;SDS011;18261;53.648;9.910;2023-07-30T12:32:27;12.15;;;3.00;;
31652;SDS011;18261;53.648;9.910;2023-07-30T12:34:54;11.70;;;3.20;;
31652;SDS011;18261;53.648;9.910;2023-07-30T12:37:20;14.20;;;3.20;;
31652;SDS011;18261;53.648;9.910;2023-07-30T12:39:46;19.92;;;4.50;;
31652;SDS011;18261;53.648;9.910;2023-07-30T12:42:12;11.73;;;3.15;;
31652;SDS011;18261;53.648;9.910;2023-07-30T12:44:38;19.70;;;3.50;;
31652;SDS011;18261;53.648;9.910;2023-07-30T12:47:04;24.50;;;3.85;;
31652;SDS011;18261;53.648;9.910;2023-07-30T12:49:30;17.38;;;3.58;;
31652;SDS011;18261;53.648;9.910;2023-07-30T12:51:56;18.42;;;4.30;;
31652;SDS011;18261;53.648;9.910;2023-07-30T12:54:22;19.48;;;3.42;;
31652;SDS011;18261;53.648;9.910;2023-07-30T12:56:48;18.60;;;3.92;;
31652;SDS011;18261;53.648;9.910;2023-07-30T12:59:14;14.05;;;3.70;;
31652;SDS011;18261;53.648;9.910;2023-07-30T13:01:40;17.90;;;3.95;;
31652;SDS011;18261;53.648;9.910;2023-07-30T13:04:06;20.35;;;4.03;;
31652;SDS011;18261;53.648;9.910;2023-07-30T13:06:32;9.30;;;3.38;;
31652;SDS011;18261;53.648;9.910;2023-07-30T13:08:58;18.30;;;4.65;;
31652;SDS011;18261;53.648;9.910;2023-07-30T13:11:24;16.50;;;4.32;;
31652;SDS011;18261;53.648;9.910;2023-07-30T13:13:50;11.98;;;3.10;;
31652;SDS011;18261;53.648;9.910;2023-07-30T13:16:16;22.10;;;3.45;;
31652;SDS011;18261;53.648;9.910;2023-07-30T13:18:42;15.93;;;2.97;;
31652;SDS011;18261;53.648;9.910;2023-07-30T13:21:08;14.82;;;2.58;;
31652;SDS011;18261;53.648;9.910;2023-07-30T13:23:34;15.38;;;2.97;;
31652;SDS011;18261;53.648;9.910;2023-07-30T13:26:00;14.18;;;3.35;;
31652;SDS011;18261;53.648;9.910;2023-07-30T13:28:28;12.07;;;2.67;;
31652;SDS011;18261;53.648;9.910;2023-07-30T13:30:54;14.80;;;2.65;;
31652;SDS011;18261;53.648;9.910;2023-07-30T13:33:21;10.43;;;2.65;;
31652;SDS011;18261;53.648;9.910;2023-07-30T13:35:47;8.60;;;2.38;;
31652;SDS011;18261;53.648;9.910;2023-07-30T13:38:13;13.43;;;3.13;;
31652;SDS011;18261;53.648;9.910;2023-07-30T13:40:39;8.98;;;2.40;;
31652;SDS011;18261;53.648;9.910;2023-07-30T13:43:05;10.77;;;2.42;;
31652;SDS011;18261;53.648;9.910;2023-07-30T13:45:31;11.55;;;4.32;;
31652;SDS011;18261;53.648;9.910;2023-07-30T13:47:57;13.65;;;2.90;;
31652;SDS011;18261;53.648;9.910;2023-07-30T13:50:23;10.60;;;2.90;;
31652;SDS011;18261;53.648;9.910;2023-07-30T13:52:49;9.52;;;2.40;;
31652;SDS011;18261;53.648;9.910;2023-07-30T13:55:15;13.45;;;2.60;;
31652;SDS011;18261;53.648;9.910;2023-07-30T13:57:41;12.93;;;2.50;;
31652;SDS011;18261;53.648;9.910;2023-07-30T14:00:08;9.30;;;2.05;;
31652;SDS011;18261;53.648;9.910;2023-07-30T14:02:34;11.57;;;3.05;;
31652;SDS011;18261;53.648;9.910;2023-07-30T14:05:00;7.78;;;3.00;;
31652;SDS011;18261;53.648;9.910;2023-07-30T14:07:26;8.82;;;2.63;;
31652;SDS011;18261;53.648;9.910;2023-07-30T14:09:52;12.93;;;2.53;;
31652;SDS011;18261;53.648;9.910;2023-07-30T14:12:18;8.57;;;1.90;;
31652;SDS011;18261;53.648;9.910;2023-07-30T14:14:44;6.50;;;1.90;;
31652;SDS011;18261;53.648;9.910;2023-07-30T14:17:10;11.00;;;2.17;;
31652;SDS011;18261;53.648;9.910;2023-07-30T14:19:36;7.55;;;2.17;;
31652;SDS011;18261;53.648;9.910;2023-07-30T14:22:02;7.47;;;1.98;;
31652;SDS011;18261;53.648;9.910;2023-07-30T14:24:28;7.63;;;2.00;;
31652;SDS011;18261;53.648;9.910;2023-07-30T14:26:54;7.00;;;1.92;;
31652;SDS011;18261;53.648;9.910;2023-07-30T14:29:20;4.93;;;1.48;;
31652;SDS011;18261;53.648;9.910;2023-07-30T14:31:46;7.50;;;1.90;;
31652;SDS011;18261;53.648;9.910;2023-07-30T14:34:12;8.13;;;2.35;;